sensor_id;sensor_type;location;lat;lon;timestamp;temperature;humidity
17954;DHT22;9102;53.548;9.926;2022-11-12T00:01:39;9.70;99.90
17954;DHT22;9102;53.548;9.926;2022-11-12T00:04:07;9.70;99.90
17954;DHT22;9102;53.548;9.926;2022-11-12T00:06:34;9.70;99.90
17954;DHT22;9102;53.548;9.926;2022-11-12T00:09:01;9.70;99.90
17954;DHT22;9102;53.548;9.926;2022-11-12T00:11:27;9.70;99.90
17954;DHT22;9102;53.548;9.926;2022-11-12T00:13:54;9.70;99.90
17954;DHT22;9102;53.548;9.926;2022-11-12T00:16:21;9.70;99.90
17954;DHT22;9102;53.548;9.926;2022-11-12T00:18:48;9.70;99.90
17954;DHT22;9102;53.548;9.926;2022-11-12T00:21:16;9.70;99.90
17954;DHT22;9102;53.548;9.926;2022-11-12T00:23:43;9.70;99.90
17954;DHT22;9102;53.548;9.926;2022-11-12T00:26:09;9.70;99.90
17954;DHT22;9102;53.548;9.926;2022-11-12T00:28:36;9.70;99.90
17954;DHT22;9102;53.548;9.926;2022-11-12T00:31:07;9.80;99.90
17954;DHT22;9102;53.548;9.926;2022-11-12T00:33:38;9.80;99.90
17954;DHT22;9102;53.548;9.926;2022-11-12T00:36:05;9.80;99.90
17954;DHT22;9102;53.548;9.926;2022-11-12T00:38:33;9.80;99.90
17954;DHT22;9102;53.548;9.926;2022-11-12T00:41:00;9.80;99.90
17954;DHT22;9102;53.548;9.926;2022-11-12T00:43:27;9.80;99.90
17954;DHT22;9102;53.548;9.926;2022-11-12T00:45:54;9.80;99.90
17954;DHT22;9102;53.548;9.926;2022-11-12T00:48:20;9.90;99.90
17954;DHT22;9102;53.548;9.926;2022-11-12T00:50:47;10.00;99.90
17954;DHT22;9102;53.548;9.926;2022-11-12T00:53:14;9.90;99.90
17954;DHT22;9102;53.548;9.926;2022-11-12T00:55:42;10.00;99.90
17954;DHT22;9102;53.548;9.926;2022-11-12T00:58:09;9.90;99.90
17954;DHT22;9102;53.548;9.926;2022-11-12T01:00:36;9.90;99.90
17954;DHT22;9102;53.548;9.926;2022-11-12T01:03:03;9.90;99.90
17954;DHT22;9102;53.548;9.926;2022-11-12T01:05:31;9.80;99.90
17954;DHT22;9102;53.548;9.926;2022-11-12T01:07:58;9.80;99.90
17954;DHT22;9102;53.548;9.926;2022-11-12T01:10:25;9.80;99.90
17954;DHT22;9102;53.548;9.926;2022-11-12T01:12:53;9.80;99.90
17954;DHT22;9102;53.548;9.926;2022-11-12T01:15:20;9.80;99.90
17954;DHT22;9102;53.548;9.926;2022-11-12T01:17:47;9.70;99.90
17954;DHT22;9102;53.548;9.926;2022-11-12T01:20:14;9.70;99.90
17954;DHT22;9102;53.548;9.926;2022-11-12T01:22:41;9.70;99.90
17954;DHT22;9102;53.548;9.926;2022-11-12T01:25:08;9.70;99.90
17954;DHT22;9102;53.548;9.926;2022-11-12T01:27:35;9.70;99.90
17954;DHT22;9102;53.548;9.926;2022-11-12T01:30:04;9.80;99.90
17954;DHT22;9102;53.548;9.926;2022-11-12T01:32:33;9.80;99.90
17954;DHT22;9102;53.548;9.926;2022-11-12T01:35:00;9.80;99.90
17954;DHT22;9102;53.548;9.926;2022-11-12T01:37:27;9.80;99.90
17954;DHT22;9102;53.548;9.926;2022-11-12T01:39:54;9.80;99.90
17954;DHT22;9102;53.548;9.926;2022-11-12T01:42:22;9.80;99.90
17954;DHT22;9102;53.548;9.926;2022-11-12T01:44:50;9.80;99.90
17954;DHT22;9102;53.548;9.926;2022-11-12T01:47:20;9.80;99.90
17954;DHT22;9102;53.548;9.926;2022-11-12T01:49:53;9.80;99.90
17954;DHT22;9102;53.548;9.926;2022-11-12T01:52:25;9.90;99.90
17954;DHT22;9102;53.548;9.926;2022-11-12T01:54:56;9.90;99.90
17954;DHT22;9102;53.548;9.926;2022-11-12T01:57:28;9.90;99.90
17954;DHT22;9102;53.548;9.926;2022-11-12T02:00:02;9.90;99.90
17954;DHT22;9102;53.548;9.926;2022-11-12T02:02:32;9.90;99.90
17954;DHT22;9102;53.548;9.926;2022-11-12T02:05:02;9.90;99.90
17954;DHT22;9102;53.548;9.926;2022-11-12T02:07:30;9.90;99.90
17954;DHT22;9102;53.548;9.926;2022-11-12T02:09:59;10.00;99.90
17954;DHT22;9102;53.548;9.926;2022-11-12T02:12:26;10.00;99.90
17954;DHT22;9102;53.548;9.926;2022-11-12T02:15:11;9.90;99.90
17954;DHT22;9102;53.548;9.926;2022-11-12T02:17:39;10.00;99.90
17954;DHT22;9102;53.548;9.926;2022-11-12T02:20:08;10.00;99.90
17954;DHT22;9102;53.548;9.926;2022-11-12T02:22:37;10.00;99.90
17954;DHT22;9102;53.548;9.926;2022-11-12T02:25:05;10.00;99.90
17954;DHT22;9102;53.548;9.926;2022-11-12T02:27:32;10.00;99.90
17954;DHT22;9102;53.548;9.926;2022-11-12T02:29:59;10.00;99.90
17954;DHT22;9102;53.548;9.926;2022-11-12T02:32:26;10.00;99.90
17954;DHT22;9102;53.548;9.926;2022-11-12T02:34:53;10.00;99.90
17954;DHT22;9102;53.548;9.926;2022-11-12T02:37:20;10.00;99.90
17954;DHT22;9102;53.548;9.926;2022-11-12T02:39:48;10.00;99.90
17954;DHT22;9102;53.548;9.926;2022-11-12T02:42:15;9.90;99.90
17954;DHT22;9102;53.548;9.926;2022-11-12T02:44:42;9.90;99.90
17954;DHT22;9102;53.548;9.926;2022-11-12T02:47:08;9.90;99.90
17954;DHT22;9102;53.548;9.926;2022-11-12T02:49:35;9.80;99.90
17954;DHT22;9102;53.548;9.926;2022-11-12T02:52:02;9.70;99.90
17954;DHT22;9102;53.548;9.926;2022-11-12T02:54:29;9.70;99.90
17954;DHT22;9102;53.548;9.926;2022-11-12T02:56:57;9.70;99.90
17954;DHT22;9102;53.548;9.926;2022-11-12T02:59:24;9.60;99.90
17954;DHT22;9102;53.548;9.926;2022-11-12T03:01:51;9.50;99.90
17954;DHT22;9102;53.548;9.926;2022-11-12T03:04:18;9.50;99.90
17954;DHT22;9102;53.548;9.926;2022-11-12T03:06:45;9.40;99.90
17954;DHT22;9102;53.548;9.926;2022-11-12T03:09:11;9.20;99.90
17954;DHT22;9102;53.548;9.926;2022-11-12T03:11:38;9.10;99.90
17954;DHT22;9102;53.548;9.926;2022-11-12T03:14:06;9.10;99.90
17954;DHT22;9102;53.548;9.926;2022-11-12T03:16:33;9.10;99.90
17954;DHT22;9102;53.548;9.926;2022-11-12T03:19:00;9.00;99.90
17954;DHT22;9102;53.548;9.926;2022-11-12T03:21:27;9.00;99.90
17954;DHT22;9102;53.548;9.926;2022-11-12T03:23:54;9.00;99.90
17954;DHT22;9102;53.548;9.926;2022-11-12T03:26:20;9.00;99.90
17954;DHT22;9102;53.548;9.926;2022-11-12T03:28:49;9.00;99.90
17954;DHT22;9102;53.548;9.926;2022-11-12T03:31:17;8.90;99.90
17954;DHT22;9102;53.548;9.926;2022-11-12T03:33:44;8.90;99.90
17954;DHT22;9102;53.548;9.926;2022-11-12T03:36:11;8.90;99.90
17954;DHT22;9102;53.548;9.926;2022-11-12T03:38:38;8.90;99.90
17954;DHT22;9102;53.548;9.926;2022-11-12T03:41:05;8.90;99.90
17954;DHT22;9102;53.548;9.926;2022-11-12T03:43:31;8.80;99.90
17954;DHT22;9102;53.548;9.926;2022-11-12T03:45:58;8.80;99.90
17954;DHT22;9102;53.548;9.926;2022-11-12T03:48:27;8.80;99.90
17954;DHT22;9102;53.548;9.926;2022-11-12T03:50:57;8.80;99.90
17954;DHT22;9102;53.548;9.926;2022-11-12T03:53:24;8.80;99.90
17954;DHT22;9102;53.548;9.926;2022-11-12T03:55:51;8.70;99.90
17954;DHT22;9102;53.548;9.926;2022-11-12T03:58:18;8.70;99.90
17954;DHT22;9102;53.548;9.926;2022-11-12T04:00:44;8.70;99.90
17954;DHT22;9102;53.548;9.926;2022-11-12T04:03:11;8.60;99.90
17954;DHT22;9102;53.548;9.926;2022-11-12T04:05:39;8.60;99.90
17954;DHT22;9102;53.548;9.926;2022-11-12T04:08:24;8.60;99.90
17954;DHT22;9102;53.548;9.926;2022-11-12T04:11:05;8.60;99.90
17954;DHT22;9102;53.548;9.926;2022-11-12T04:13:32;8.60;99.90
17954;DHT22;9102;53.548;9.926;2022-11-12T04:16:01;8.50;99.90
17954;DHT22;9102;53.548;9.926;2022-11-12T04:18:47;8.50;99.90
17954;DHT22;9102;53.548;9.926;2022-11-12T04:21:36;8.40;99.90
17954;DHT22;9102;53.548;9.926;2022-11-12T04:24:17;8.40;99.90
17954;DHT22;9102;53.548;9.926;2022-11-12T04:27:03;8.40;99.90
17954;DHT22;9102;53.548;9.926;2022-11-12T04:29:30;8.40;99.90
17954;DHT22;9102;53.548;9.926;2022-11-12T04:32:14;8.30;99.90
17954;DHT22;9102;53.548;9.926;2022-11-12T04:34:41;8.30;99.90
17954;DHT22;9102;53.548;9.926;2022-11-12T04:37:10;8.30;99.90
17954;DHT22;9102;53.548;9.926;2022-11-12T04:39:36;8.30;99.90
17954;DHT22;9102;53.548;9.926;2022-11-12T04:42:03;8.30;99.90
17954;DHT22;9102;53.548;9.926;2022-11-12T04:44:48;8.20;99.90
17954;DHT22;9102;53.548;9.926;2022-11-12T04:47:30;8.20;99.90
17954;DHT22;9102;53.548;9.926;2022-11-12T04:49:57;8.30;99.90
17954;DHT22;9102;53.548;9.926;2022-11-12T04:52:26;8.20;99.90
17954;DHT22;9102;53.548;9.926;2022-11-12T04:54:54;8.10;99.90
17954;DHT22;9102;53.548;9.926;2022-11-12T04:57:21;8.10;99.90
17954;DHT22;9102;53.548;9.926;2022-11-12T04:59:48;8.10;99.90
17954;DHT22;9102;53.548;9.926;2022-11-12T05:02:15;8.00;99.90
17954;DHT22;9102;53.548;9.926;2022-11-12T05:04:42;8.10;99.90
17954;DHT22;9102;53.548;9.926;2022-11-12T05:07:09;8.10;99.90
17954;DHT22;9102;53.548;9.926;2022-11-12T05:09:38;8.10;99.90
17954;DHT22;9102;53.548;9.926;2022-11-12T05:12:05;8.10;99.90
17954;DHT22;9102;53.548;9.926;2022-11-12T05:14:32;8.10;99.90
17954;DHT22;9102;53.548;9.926;2022-11-12T05:16:59;8.10;99.90
17954;DHT22;9102;53.548;9.926;2022-11-12T05:19:26;8.10;99.90
17954;DHT22;9102;53.548;9.926;2022-11-12T05:21:53;8.10;99.90
17954;DHT22;9102;53.548;9.926;2022-11-12T05:24:38;8.10;99.90
17954;DHT22;9102;53.548;9.926;2022-11-12T05:27:08;8.00;99.90
17954;DHT22;9102;53.548;9.926;2022-11-12T05:29:35;8.00;99.90
17954;DHT22;9102;53.548;9.926;2022-11-12T05:32:02;8.10;99.90
17954;DHT22;9102;53.548;9.926;2022-11-12T05:34:29;8.00;99.90
17954;DHT22;9102;53.548;9.926;2022-11-12T05:36:56;8.10;99.90
17954;DHT22;9102;53.548;9.926;2022-11-12T05:39:24;8.00;99.90
17954;DHT22;9102;53.548;9.926;2022-11-12T05:41:52;8.10;99.90
17954;DHT22;9102;53.548;9.926;2022-11-12T05:44:19;8.10;99.90
17954;DHT22;9102;53.548;9.926;2022-11-12T05:46:46;8.10;99.90
17954;DHT22;9102;53.548;9.926;2022-11-12T05:49:13;8.00;99.90
17954;DHT22;9102;53.548;9.926;2022-11-12T05:51:40;8.20;99.90
17954;DHT22;9102;53.548;9.926;2022-11-12T05:54:07;8.10;99.90
17954;DHT22;9102;53.548;9.926;2022-11-12T05:56:34;8.00;99.90
17954;DHT22;9102;53.548;9.926;2022-11-12T05:59:05;8.00;99.90
17954;DHT22;9102;53.548;9.926;2022-11-12T06:01:32;8.00;99.90
17954;DHT22;9102;53.548;9.926;2022-11-12T06:04:00;8.00;99.90
17954;DHT22;9102;53.548;9.926;2022-11-12T06:06:27;8.00;99.90
17954;DHT22;9102;53.548;9.926;2022-11-12T06:08:54;8.00;99.90
17954;DHT22;9102;53.548;9.926;2022-11-12T06:11:20;8.00;99.90
17954;DHT22;9102;53.548;9.926;2022-11-12T06:13:47;8.00;99.90
17954;DHT22;9102;53.548;9.926;2022-11-12T06:16:15;8.00;99.90
17954;DHT22;9102;53.548;9.926;2022-11-12T06:18:42;8.00;99.90
17954;DHT22;9102;53.548;9.926;2022-11-12T06:21:10;8.00;99.90
17954;DHT22;9102;53.548;9.926;2022-11-12T06:23:49;7.90;99.90
17954;DHT22;9102;53.548;9.926;2022-11-12T06:26:17;8.00;99.90
17954;DHT22;9102;53.548;9.926;2022-11-12T06:28:44;8.00;99.90
17954;DHT22;9102;53.548;9.926;2022-11-12T06:31:11;7.70;99.90
17954;DHT22;9102;53.548;9.926;2022-11-12T06:33:39;7.90;99.90
17954;DHT22;9102;53.548;9.926;2022-11-12T06:36:06;7.80;99.90
17954;DHT22;9102;53.548;9.926;2022-11-12T06:38:35;7.70;99.90
17954;DHT22;9102;53.548;9.926;2022-11-12T06:41:02;7.70;99.90
17954;DHT22;9102;53.548;9.926;2022-11-12T06:43:31;7.60;99.90
17954;DHT22;9102;53.548;9.926;2022-11-12T06:45:59;7.60;99.90
17954;DHT22;9102;53.548;9.926;2022-11-12T06:48:27;7.60;99.90
17954;DHT22;9102;53.548;9.926;2022-11-12T06:50:55;7.50;99.90
17954;DHT22;9102;53.548;9.926;2022-11-12T06:53:22;7.50;99.90
17954;DHT22;9102;53.548;9.926;2022-11-12T06:55:49;7.60;99.90
17954;DHT22;9102;53.548;9.926;2022-11-12T06:58:16;7.60;99.90
17954;DHT22;9102;53.548;9.926;2022-11-12T07:00:43;7.60;99.90
17954;DHT22;9102;53.548;9.926;2022-11-12T07:03:12;7.70;99.90
17954;DHT22;9102;53.548;9.926;2022-11-12T07:05:40;7.70;99.90
17954;DHT22;9102;53.548;9.926;2022-11-12T07:08:08;7.70;99.90
17954;DHT22;9102;53.548;9.926;2022-11-12T07:10:35;7.70;99.90
17954;DHT22;9102;53.548;9.926;2022-11-12T07:13:01;7.60;99.90
17954;DHT22;9102;53.548;9.926;2022-11-12T07:15:28;7.70;99.90
17954;DHT22;9102;53.548;9.926;2022-11-12T07:17:55;7.70;99.90
17954;DHT22;9102;53.548;9.926;2022-11-12T07:20:22;7.70;99.90
17954;DHT22;9102;53.548;9.926;2022-11-12T07:22:49;7.60;99.90
17954;DHT22;9102;53.548;9.926;2022-11-12T07:25:17;7.60;99.90
17954;DHT22;9102;53.548;9.926;2022-11-12T07:27:44;7.60;99.90
17954;DHT22;9102;53.548;9.926;2022-11-12T07:30:11;7.70;99.90
17954;DHT22;9102;53.548;9.926;2022-11-12T07:32:38;7.70;99.90
17954;DHT22;9102;53.548;9.926;2022-11-12T07:35:06;7.80;99.90
17954;DHT22;9102;53.548;9.926;2022-11-12T07:37:33;7.70;99.90
17954;DHT22;9102;53.548;9.926;2022-11-12T07:40:01;7.70;99.90
17954;DHT22;9102;53.548;9.926;2022-11-12T07:42:31;7.70;99.90
17954;DHT22;9102;53.548;9.926;2022-11-12T07:44:58;7.70;99.90
17954;DHT22;9102;53.548;9.926;2022-11-12T07:47:25;7.70;99.90
17954;DHT22;9102;53.548;9.926;2022-11-12T07:49:55;7.60;99.90
17954;DHT22;9102;53.548;9.926;2022-11-12T07:52:22;7.60;99.90
17954;DHT22;9102;53.548;9.926;2022-11-12T07:54:48;7.70;99.90
17954;DHT22;9102;53.548;9.926;2022-11-12T07:57:15;7.80;99.90
17954;DHT22;9102;53.548;9.926;2022-11-12T07:59:44;7.80;99.90
17954;DHT22;9102;53.548;9.926;2022-11-12T08:02:10;7.90;99.90
17954;DHT22;9102;53.548;9.926;2022-11-12T08:04:38;7.90;99.90
17954;DHT22;9102;53.548;9.926;2022-11-12T08:07:05;7.90;99.90
17954;DHT22;9102;53.548;9.926;2022-11-12T08:09:35;8.00;99.90
17954;DHT22;9102;53.548;9.926;2022-11-12T08:12:03;8.00;99.90
17954;DHT22;9102;53.548;9.926;2022-11-12T08:14:30;8.00;99.90
17954;DHT22;9102;53.548;9.926;2022-11-12T08:16:58;8.10;99.90
17954;DHT22;9102;53.548;9.926;2022-11-12T08:19:25;8.20;99.90
17954;DHT22;9102;53.548;9.926;2022-11-12T08:21:52;8.20;99.90
17954;DHT22;9102;53.548;9.926;2022-11-12T08:24:19;8.20;99.90
17954;DHT22;9102;53.548;9.926;2022-11-12T08:26:46;8.20;99.90
17954;DHT22;9102;53.548;9.926;2022-11-12T08:29:12;8.30;99.90
17954;DHT22;9102;53.548;9.926;2022-11-12T08:31:41;8.40;99.90
17954;DHT22;9102;53.548;9.926;2022-11-12T08:34:10;8.40;99.90
17954;DHT22;9102;53.548;9.926;2022-11-12T08:36:39;8.50;99.90
17954;DHT22;9102;53.548;9.926;2022-11-12T08:39:06;8.60;99.90
17954;DHT22;9102;53.548;9.926;2022-11-12T08:41:33;8.60;99.90
17954;DHT22;9102;53.548;9.926;2022-11-12T08:44:00;8.60;99.90
17954;DHT22;9102;53.548;9.926;2022-11-12T08:46:28;8.70;99.90
17954;DHT22;9102;53.548;9.926;2022-11-12T08:48:54;8.70;99.90
17954;DHT22;9102;53.548;9.926;2022-11-12T08:51:23;8.70;99.90
17954;DHT22;9102;53.548;9.926;2022-11-12T08:53:49;8.80;99.90
17954;DHT22;9102;53.548;9.926;2022-11-12T08:56:16;8.80;99.90
17954;DHT22;9102;53.548;9.926;2022-11-12T08:58:43;8.80;99.90
17954;DHT22;9102;53.548;9.926;2022-11-12T09:01:10;8.90;99.90
17954;DHT22;9102;53.548;9.926;2022-11-12T09:03:37;8.90;99.90
17954;DHT22;9102;53.548;9.926;2022-11-12T09:06:04;8.90;99.90
17954;DHT22;9102;53.548;9.926;2022-11-12T09:08:34;9.00;99.90
17954;DHT22;9102;53.548;9.926;2022-11-12T09:11:02;9.00;99.90
17954;DHT22;9102;53.548;9.926;2022-11-12T09:13:29;9.00;99.90
17954;DHT22;9102;53.548;9.926;2022-11-12T09:16:03;9.00;99.90
17954;DHT22;9102;53.548;9.926;2022-11-12T09:18:31;9.00;99.90
17954;DHT22;9102;53.548;9.926;2022-11-12T09:20:59;9.10;99.90
17954;DHT22;9102;53.548;9.926;2022-11-12T09:23:27;9.20;99.90
17954;DHT22;9102;53.548;9.926;2022-11-12T09:25:56;9.20;99.90
17954;DHT22;9102;53.548;9.926;2022-11-12T09:28:24;9.30;99.90
17954;DHT22;9102;53.548;9.926;2022-11-12T09:30:52;9.30;99.90
17954;DHT22;9102;53.548;9.926;2022-11-12T09:33:21;9.40;99.90
17954;DHT22;9102;53.548;9.926;2022-11-12T09:35:49;9.40;99.90
17954;DHT22;9102;53.548;9.926;2022-11-12T09:38:16;9.40;99.90
17954;DHT22;9102;53.548;9.926;2022-11-12T09:40:56;9.50;99.90
17954;DHT22;9102;53.548;9.926;2022-11-12T09:43:30;9.60;99.90
17954;DHT22;9102;53.548;9.926;2022-11-12T09:46:02;9.70;99.90
17954;DHT22;9102;53.548;9.926;2022-11-12T09:48:35;9.80;99.90
17954;DHT22;9102;53.548;9.926;2022-11-12T09:51:09;9.80;99.90
17954;DHT22;9102;53.548;9.926;2022-11-12T09:53:42;9.90;99.90
17954;DHT22;9102;53.548;9.926;2022-11-12T09:56:12;10.00;99.90
17954;DHT22;9102;53.548;9.926;2022-11-12T09:58:40;10.10;99.90
17954;DHT22;9102;53.548;9.926;2022-11-12T10:01:12;10.20;99.90
17954;DHT22;9102;53.548;9.926;2022-11-12T10:03:45;10.20;99.90
17954;DHT22;9102;53.548;9.926;2022-11-12T10:06:16;10.20;99.90
17954;DHT22;9102;53.548;9.926;2022-11-12T10:08:48;10.30;99.90
17954;DHT22;9102;53.548;9.926;2022-11-12T10:11:41;10.30;99.90
17954;DHT22;9102;53.548;9.926;2022-11-12T10:14:43;10.40;99.90
17954;DHT22;9102;53.548;9.926;2022-11-12T10:17:21;10.50;99.90
17954;DHT22;9102;53.548;9.926;2022-11-12T10:20:03;10.50;99.90
17954;DHT22;9102;53.548;9.926;2022-11-12T10:22:39;10.60;99.90
17954;DHT22;9102;53.548;9.926;2022-11-12T10:25:13;10.60;99.90
17954;DHT22;9102;53.548;9.926;2022-11-12T10:27:41;10.60;99.90
17954;DHT22;9102;53.548;9.926;2022-11-12T10:30:15;10.70;99.90
17954;DHT22;9102;53.548;9.926;2022-11-12T10:32:43;10.70;99.90
17954;DHT22;9102;53.548;9.926;2022-11-12T10:35:13;10.80;99.90
17954;DHT22;9102;53.548;9.926;2022-11-12T10:37:46;10.90;99.90
17954;DHT22;9102;53.548;9.926;2022-11-12T10:40:29;10.90;99.90
17954;DHT22;9102;53.548;9.926;2022-11-12T10:42:57;11.00;99.90
17954;DHT22;9102;53.548;9.926;2022-11-12T10:45:27;11.00;99.90
17954;DHT22;9102;53.548;9.926;2022-11-12T10:47:54;11.10;99.90
17954;DHT22;9102;53.548;9.926;2022-11-12T10:50:23;11.20;99.90
17954;DHT22;9102;53.548;9.926;2022-11-12T10:52:56;11.20;99.90
17954;DHT22;9102;53.548;9.926;2022-11-12T10:55:25;11.20;99.90
17954;DHT22;9102;53.548;9.926;2022-11-12T10:58:12;11.20;99.90
17954;DHT22;9102;53.548;9.926;2022-11-12T11:00:57;11.30;99.90
17954;DHT22;9102;53.548;9.926;2022-11-12T11:03:26;11.40;99.90
17954;DHT22;9102;53.548;9.926;2022-11-12T11:05:56;11.40;99.90
17954;DHT22;9102;53.548;9.926;2022-11-12T11:08:39;11.50;99.90
17954;DHT22;9102;53.548;9.926;2022-11-12T11:11:24;11.60;99.90
17954;DHT22;9102;53.548;9.926;2022-11-12T11:13:52;11.70;99.90
17954;DHT22;9102;53.548;9.926;2022-11-12T11:16:22;11.70;99.90
17954;DHT22;9102;53.548;9.926;2022-11-12T11:18:51;11.80;99.90
17954;DHT22;9102;53.548;9.926;2022-11-12T11:24:32;11.80;99.90
17954;DHT22;9102;53.548;9.926;2022-11-12T11:27:03;11.80;99.90
17954;DHT22;9102;53.548;9.926;2022-11-12T11:35:31;11.90;99.90
17954;DHT22;9102;53.548;9.926;2022-11-12T11:38:19;11.90;99.90
17954;DHT22;9102;53.548;9.926;2022-11-12T11:40:53;11.90;99.90
17954;DHT22;9102;53.548;9.926;2022-11-12T11:43:39;12.00;99.90
17954;DHT22;9102;53.548;9.926;2022-11-12T11:46:15;12.10;99.90
17954;DHT22;9102;53.548;9.926;2022-11-12T11:48:53;12.10;99.90
17954;DHT22;9102;53.548;9.926;2022-11-12T11:51:36;12.20;99.90
17954;DHT22;9102;53.548;9.926;2022-11-12T11:54:14;12.40;99.90
17954;DHT22;9102;53.548;9.926;2022-11-12T11:56:48;12.40;99.90
17954;DHT22;9102;53.548;9.926;2022-11-12T11:59:26;12.50;99.90
17954;DHT22;9102;53.548;9.926;2022-11-12T12:02:03;12.40;99.90
17954;DHT22;9102;53.548;9.926;2022-11-12T12:04:45;12.40;99.90
17954;DHT22;9102;53.548;9.926;2022-11-12T12:07:20;12.50;99.90
17954;DHT22;9102;53.548;9.926;2022-11-12T12:09:57;12.30;99.90
17954;DHT22;9102;53.548;9.926;2022-11-12T12:12:38;12.20;99.90
17954;DHT22;9102;53.548;9.926;2022-11-12T12:15:29;12.20;99.90
17954;DHT22;9102;53.548;9.926;2022-11-12T12:18:02;12.10;99.90
17954;DHT22;9102;53.548;9.926;2022-11-12T12:20:40;12.00;99.90
17954;DHT22;9102;53.548;9.926;2022-11-12T12:23:14;11.90;99.90
17954;DHT22;9102;53.548;9.926;2022-11-12T12:25:45;11.90;99.90
17954;DHT22;9102;53.548;9.926;2022-11-12T12:28:18;11.80;99.90
17954;DHT22;9102;53.548;9.926;2022-11-12T12:30:51;11.80;99.90
17954;DHT22;9102;53.548;9.926;2022-11-12T12:33:26;11.70;99.90
17954;DHT22;9102;53.548;9.926;2022-11-12T12:36:00;11.80;99.90
17954;DHT22;9102;53.548;9.926;2022-11-12T12:38:33;11.80;99.90
17954;DHT22;9102;53.548;9.926;2022-11-12T12:41:08;11.90;99.90
17954;DHT22;9102;53.548;9.926;2022-11-12T12:43:40;12.00;99.90
17954;DHT22;9102;53.548;9.926;2022-11-12T12:46:10;12.00;99.90
17954;DHT22;9102;53.548;9.926;2022-11-12T12:48:41;12.00;99.90
17954;DHT22;9102;53.548;9.926;2022-11-12T12:51:11;12.00;99.90
17954;DHT22;9102;53.548;9.926;2022-11-12T12:53:38;12.10;99.90
17954;DHT22;9102;53.548;9.926;2022-11-12T12:56:06;12.00;99.90
17954;DHT22;9102;53.548;9.926;2022-11-12T12:58:52;12.10;99.90
17954;DHT22;9102;53.548;9.926;2022-11-12T13:01:28;12.20;99.90
17954;DHT22;9102;53.548;9.926;2022-11-12T13:03:57;12.20;99.90
17954;DHT22;9102;53.548;9.926;2022-11-12T13:06:30;12.30;99.90
17954;DHT22;9102;53.548;9.926;2022-11-12T13:09:02;12.20;99.90
17954;DHT22;9102;53.548;9.926;2022-11-12T13:11:53;12.20;99.90
17954;DHT22;9102;53.548;9.926;2022-11-12T13:14:51;12.30;99.90
17954;DHT22;9102;53.548;9.926;2022-11-12T13:17:41;12.20;99.90
17954;DHT22;9102;53.548;9.926;2022-11-12T13:20:33;12.20;99.90
17954;DHT22;9102;53.548;9.926;2022-11-12T13:23:06;12.30;99.90
17954;DHT22;9102;53.548;9.926;2022-11-12T13:25:34;12.30;99.90
17954;DHT22;9102;53.548;9.926;2022-11-12T13:28:11;12.30;99.90
17954;DHT22;9102;53.548;9.926;2022-11-12T13:31:01;12.30;99.90
17954;DHT22;9102;53.548;9.926;2022-11-12T13:33:31;12.30;99.90
17954;DHT22;9102;53.548;9.926;2022-11-12T13:36:25;12.40;99.90
17954;DHT22;9102;53.548;9.926;2022-11-12T13:38:55;12.20;99.90
17954;DHT22;9102;53.548;9.926;2022-11-12T13:41:36;12.20;99.90
17954;DHT22;9102;53.548;9.926;2022-11-12T13:44:20;12.10;99.90
17954;DHT22;9102;53.548;9.926;2022-11-12T13:46:49;12.20;99.90
17954;DHT22;9102;53.548;9.926;2022-11-12T13:49:18;12.20;99.90
17954;DHT22;9102;53.548;9.926;2022-11-12T13:51:47;12.20;99.90
17954;DHT22;9102;53.548;9.926;2022-11-12T13:54:33;12.30;99.90
17954;DHT22;9102;53.548;9.926;2022-11-12T13:57:26;12.20;99.90
17954;DHT22;9102;53.548;9.926;2022-11-12T14:00:20;12.30;99.90
17954;DHT22;9102;53.548;9.926;2022-11-12T14:02:51;12.20;99.90
17954;DHT22;9102;53.548;9.926;2022-11-12T14:05:20;12.20;99.90
17954;DHT22;9102;53.548;9.926;2022-11-12T14:07:54;12.20;99.90
17954;DHT22;9102;53.548;9.926;2022-11-12T14:10:34;12.20;99.90
17954;DHT22;9102;53.548;9.926;2022-11-12T14:13:14;12.10;99.90
17954;DHT22;9102;53.548;9.926;2022-11-12T14:15:56;12.00;99.90
17954;DHT22;9102;53.548;9.926;2022-11-12T14:18:32;11.90;99.90
17954;DHT22;9102;53.548;9.926;2022-11-12T14:21:10;11.90;99.90
17954;DHT22;9102;53.548;9.926;2022-11-12T14:23:39;11.80;99.90
17954;DHT22;9102;53.548;9.926;2022-11-12T14:26:11;11.70;99.90
17954;DHT22;9102;53.548;9.926;2022-11-12T14:28:38;11.70;99.90
17954;DHT22;9102;53.548;9.926;2022-11-12T14:31:11;11.70;99.90
17954;DHT22;9102;53.548;9.926;2022-11-12T14:33:38;11.60;99.90
17954;DHT22;9102;53.548;9.926;2022-11-12T14:36:09;11.50;99.90
17954;DHT22;9102;53.548;9.926;2022-11-12T14:38:40;11.50;99.90
17954;DHT22;9102;53.548;9.926;2022-11-12T14:41:15;11.50;99.90
17954;DHT22;9102;53.548;9.926;2022-11-12T14:43:45;11.50;99.90
17954;DHT22;9102;53.548;9.926;2022-11-12T14:46:22;11.50;99.90
17954;DHT22;9102;53.548;9.926;2022-11-12T14:48:52;11.50;99.90
17954;DHT22;9102;53.548;9.926;2022-11-12T14:51:22;11.40;99.90
17954;DHT22;9102;53.548;9.926;2022-11-12T14:53:53;11.30;99.90
17954;DHT22;9102;53.548;9.926;2022-11-12T14:56:27;11.20;99.90
17954;DHT22;9102;53.548;9.926;2022-11-12T14:58:55;11.20;99.90
17954;DHT22;9102;53.548;9.926;2022-11-12T15:01:25;11.20;99.90
17954;DHT22;9102;53.548;9.926;2022-11-12T15:04:03;11.20;99.90
17954;DHT22;9102;53.548;9.926;2022-11-12T15:06:31;11.10;99.90
17954;DHT22;9102;53.548;9.926;2022-11-12T15:08:59;11.00;99.90
17954;DHT22;9102;53.548;9.926;2022-11-12T15:11:29;11.00;99.90
17954;DHT22;9102;53.548;9.926;2022-11-12T15:13:57;10.90;99.90
17954;DHT22;9102;53.548;9.926;2022-11-12T15:16:31;10.90;99.90
17954;DHT22;9102;53.548;9.926;2022-11-12T15:19:03;10.90;99.90
17954;DHT22;9102;53.548;9.926;2022-11-12T15:21:34;10.80;99.90
17954;DHT22;9102;53.548;9.926;2022-11-12T15:24:15;10.80;99.90
17954;DHT22;9102;53.548;9.926;2022-11-12T15:26:46;10.80;99.90
17954;DHT22;9102;53.548;9.926;2022-11-12T15:29:22;10.70;99.90
17954;DHT22;9102;53.548;9.926;2022-11-12T15:31:53;10.70;99.90
17954;DHT22;9102;53.548;9.926;2022-11-12T15:34:33;10.70;99.90
17954;DHT22;9102;53.548;9.926;2022-11-12T15:37:03;10.60;99.90
17954;DHT22;9102;53.548;9.926;2022-11-12T15:39:33;10.60;99.90
17954;DHT22;9102;53.548;9.926;2022-11-12T15:42:14;10.50;99.90
17954;DHT22;9102;53.548;9.926;2022-11-12T15:44:42;10.50;99.90
17954;DHT22;9102;53.548;9.926;2022-11-12T15:47:17;10.50;99.90
17954;DHT22;9102;53.548;9.926;2022-11-12T15:49:50;10.50;99.90
17954;DHT22;9102;53.548;9.926;2022-11-12T15:52:17;10.50;99.90
17954;DHT22;9102;53.548;9.926;2022-11-12T15:54:44;10.50;99.90
17954;DHT22;9102;53.548;9.926;2022-11-12T15:57:16;10.40;99.90
17954;DHT22;9102;53.548;9.926;2022-11-12T15:59:44;10.50;99.90
17954;DHT22;9102;53.548;9.926;2022-11-12T16:02:12;10.40;99.90
17954;DHT22;9102;53.548;9.926;2022-11-12T16:04:39;10.40;99.90
17954;DHT22;9102;53.548;9.926;2022-11-12T16:07:07;10.30;99.90
17954;DHT22;9102;53.548;9.926;2022-11-12T16:09:34;10.30;99.90
17954;DHT22;9102;53.548;9.926;2022-11-12T16:12:01;10.30;99.90
17954;DHT22;9102;53.548;9.926;2022-11-12T16:14:29;10.30;99.90
17954;DHT22;9102;53.548;9.926;2022-11-12T16:16:56;10.30;99.90
17954;DHT22;9102;53.548;9.926;2022-11-12T16:19:23;10.20;99.90
17954;DHT22;9102;53.548;9.926;2022-11-12T16:21:51;10.20;99.90
17954;DHT22;9102;53.548;9.926;2022-11-12T16:24:23;10.20;99.90
17954;DHT22;9102;53.548;9.926;2022-11-12T16:26:50;10.20;99.90